sensor_id;sensor_type;location;lat;lon;timestamp;P1;durP1;ratioP1;P2;durP2;ratioP2
66256;SDS011;53049;43.446;3.698;2023-07-08T00:00:08;11.23;;;5.10;;
66256;SDS011;53049;43.446;3.698;2023-07-08T00:02:41;11.07;;;5.55;;
66256;SDS011;53049;43.446;3.698;2023-07-08T00:05:08;9.68;;;5.38;;
66256;SDS011;53049;43.446;3.698;2023-07-08T00:07:35;12.00;;;6.18;;
66256;SDS011;53049;43.446;3.698;2023-07-08T00:10:02;13.07;;;6.00;;
66256;SDS011;53049;43.446;3.698;2023-07-08T00:12:34;13.02;;;5.75;;
66256;SDS011;53049;43.446;3.698;2023-07-08T00:15:00;11.07;;;5.40;;
66256;SDS011;53049;43.446;3.698;2023-07-08T00:17:26;10.57;;;5.57;;
66256;SDS011;53049;43.446;3.698;2023-07-08T00:19:51;14.10;;;5.72;;
66256;SDS011;53049;43.446;3.698;2023-07-08T00:22:19;14.20;;;5.72;;
66256;SDS011;53049;43.446;3.698;2023-07-08T00:24:44;13.90;;;6.03;;
66256;SDS011;53049;43.446;3.698;2023-07-08T00:27:11;12.45;;;5.70;;
66256;SDS011;53049;43.446;3.698;2023-07-08T00:29:38;11.75;;;5.50;;
66256;SDS011;53049;43.446;3.698;2023-07-08T00:32:11;11.73;;;5.97;;
66256;SDS011;53049;43.446;3.698;2023-07-08T00:34:38;11.18;;;5.78;;
66256;SDS011;53049;43.446;3.698;2023-07-08T00:37:04;10.90;;;5.53;;
66256;SDS011;53049;43.446;3.698;2023-07-08T00:39:30;11.40;;;5.85;;
66256;SDS011;53049;43.446;3.698;2023-07-08T00:41:56;11.57;;;6.03;;
66256;SDS011;53049;43.446;3.698;2023-07-08T00:44:25;12.05;;;6.70;;
66256;SDS011;53049;43.446;3.698;2023-07-08T00:47:01;12.75;;;5.97;;
66256;SDS011;53049;43.446;3.698;2023-07-08T00:54:54;11.48;;;6.00;;
66256;SDS011;53049;43.446;3.698;2023-07-08T00:57:23;14.48;;;5.70;;
66256;SDS011;53049;43.446;3.698;2023-07-08T01:02:44;13.27;;;5.68;;
66256;SDS011;53049;43.446;3.698;2023-07-08T01:05:14;11.32;;;6.03;;
66256;SDS011;53049;43.446;3.698;2023-07-08T01:07:45;10.30;;;5.47;;
66256;SDS011;53049;43.446;3.698;2023-07-08T01:10:18;10.88;;;5.65;;
66256;SDS011;53049;43.446;3.698;2023-07-08T01:12:51;11.77;;;5.95;;
66256;SDS011;53049;43.446;3.698;2023-07-08T01:15:23;11.23;;;5.28;;
66256;SDS011;53049;43.446;3.698;2023-07-08T01:18:00;11.52;;;6.10;;
66256;SDS011;53049;43.446;3.698;2023-07-08T01:20:27;12.60;;;5.85;;
66256;SDS011;53049;43.446;3.698;2023-07-08T01:22:53;11.82;;;6.13;;
66256;SDS011;53049;43.446;3.698;2023-07-08T01:25:18;13.05;;;6.63;;
66256;SDS011;53049;43.446;3.698;2023-07-08T01:27:45;11.60;;;5.60;;
66256;SDS011;53049;43.446;3.698;2023-07-08T01:30:14;13.73;;;5.63;;
66256;SDS011;53049;43.446;3.698;2023-07-08T01:32:43;12.25;;;5.32;;
66256;SDS011;53049;43.446;3.698;2023-07-08T01:35:13;9.32;;;5.43;;
66256;SDS011;53049;43.446;3.698;2023-07-08T01:37:39;11.20;;;5.35;;
66256;SDS011;53049;43.446;3.698;2023-07-08T01:40:47;12.25;;;5.43;;
66256;SDS011;53049;43.446;3.698;2023-07-08T01:43:01;13.65;;;5.85;;
66256;SDS011;53049;43.446;3.698;2023-07-08T01:45:28;10.23;;;5.28;;
66256;SDS011;53049;43.446;3.698;2023-07-08T01:48:01;13.75;;;5.38;;
66256;SDS011;53049;43.446;3.698;2023-07-08T01:50:31;12.70;;;5.60;;
66256;SDS011;53049;43.446;3.698;2023-07-08T01:53:00;11.27;;;5.57;;
66256;SDS011;53049;43.446;3.698;2023-07-08T01:55:32;12.05;;;4.93;;
66256;SDS011;53049;43.446;3.698;2023-07-08T01:57:57;10.95;;;5.60;;
66256;SDS011;53049;43.446;3.698;2023-07-08T02:00:23;13.90;;;5.28;;
66256;SDS011;53049;43.446;3.698;2023-07-08T02:02:50;11.43;;;5.30;;
66256;SDS011;53049;43.446;3.698;2023-07-08T02:05:16;9.85;;;5.40;;
66256;SDS011;53049;43.446;3.698;2023-07-08T02:07:42;10.50;;;5.43;;
66256;SDS011;53049;43.446;3.698;2023-07-08T02:10:07;13.85;;;5.80;;
66256;SDS011;53049;43.446;3.698;2023-07-08T02:12:33;13.10;;;5.25;;
66256;SDS011;53049;43.446;3.698;2023-07-08T02:15:00;9.57;;;5.03;;
66256;SDS011;53049;43.446;3.698;2023-07-08T02:17:26;12.02;;;5.32;;
66256;SDS011;53049;43.446;3.698;2023-07-08T02:19:54;14.07;;;5.10;;
66256;SDS011;53049;43.446;3.698;2023-07-08T02:22:20;10.75;;;4.65;;
66256;SDS011;53049;43.446;3.698;2023-07-08T02:24:45;12.32;;;5.55;;
66256;SDS011;53049;43.446;3.698;2023-07-08T02:27:11;11.15;;;4.88;;
66256;SDS011;53049;43.446;3.698;2023-07-08T02:29:37;13.65;;;5.75;;
66256;SDS011;53049;43.446;3.698;2023-07-08T02:32:03;10.20;;;4.85;;
66256;SDS011;53049;43.446;3.698;2023-07-08T02:34:29;11.40;;;5.28;;
66256;SDS011;53049;43.446;3.698;2023-07-08T02:36:55;10.38;;;5.35;;
66256;SDS011;53049;43.446;3.698;2023-07-08T02:39:21;8.00;;;4.88;;
66256;SDS011;53049;43.446;3.698;2023-07-08T02:41:47;11.50;;;5.30;;
66256;SDS011;53049;43.446;3.698;2023-07-08T02:44:13;11.18;;;5.25;;
66256;SDS011;53049;43.446;3.698;2023-07-08T02:46:38;12.80;;;5.03;;
66256;SDS011;53049;43.446;3.698;2023-07-08T02:49:04;10.48;;;5.05;;
66256;SDS011;53049;43.446;3.698;2023-07-08T02:51:30;10.23;;;5.05;;
66256;SDS011;53049;43.446;3.698;2023-07-08T02:53:56;12.20;;;4.80;;
66256;SDS011;53049;43.446;3.698;2023-07-08T02:56:22;9.85;;;5.35;;
66256;SDS011;53049;43.446;3.698;2023-07-08T02:58:48;10.13;;;4.82;;
66256;SDS011;53049;43.446;3.698;2023-07-08T03:01:14;11.30;;;5.22;;
66256;SDS011;53049;43.446;3.698;2023-07-08T03:03:46;9.18;;;5.00;;
66256;SDS011;53049;43.446;3.698;2023-07-08T03:06:12;12.70;;;5.00;;
66256;SDS011;53049;43.446;3.698;2023-07-08T03:08:38;14.07;;;5.82;;
66256;SDS011;53049;43.446;3.698;2023-07-08T03:11:04;10.05;;;4.88;;
66256;SDS011;53049;43.446;3.698;2023-07-08T03:13:32;11.48;;;5.25;;
66256;SDS011;53049;43.446;3.698;2023-07-08T03:15:59;12.23;;;4.50;;
66256;SDS011;53049;43.446;3.698;2023-07-08T03:18:26;11.57;;;5.50;;
66256;SDS011;53049;43.446;3.698;2023-07-08T03:20:55;9.65;;;4.80;;
66256;SDS011;53049;43.446;3.698;2023-07-08T03:23:23;11.13;;;5.00;;
66256;SDS011;53049;43.446;3.698;2023-07-08T03:25:49;11.57;;;5.22;;
66256;SDS011;53049;43.446;3.698;2023-07-08T03:28:15;10.60;;;5.38;;
66256;SDS011;53049;43.446;3.698;2023-07-08T03:30:42;14.23;;;5.32;;
66256;SDS011;53049;43.446;3.698;2023-07-08T03:33:08;11.30;;;4.90;;
66256;SDS011;53049;43.446;3.698;2023-07-08T03:35:34;11.55;;;5.20;;
66256;SDS011;53049;43.446;3.698;2023-07-08T03:38:00;11.20;;;6.00;;
66256;SDS011;53049;43.446;3.698;2023-07-08T03:40:26;12.25;;;5.32;;
66256;SDS011;53049;43.446;3.698;2023-07-08T03:42:52;10.75;;;5.00;;
66256;SDS011;53049;43.446;3.698;2023-07-08T03:45:17;12.20;;;6.43;;
66256;SDS011;53049;43.446;3.698;2023-07-08T03:47:43;8.57;;;4.70;;
66256;SDS011;53049;43.446;3.698;2023-07-08T03:50:12;12.70;;;5.38;;
66256;SDS011;53049;43.446;3.698;2023-07-08T03:52:44;9.07;;;5.15;;
66256;SDS011;53049;43.446;3.698;2023-07-08T03:55:11;9.35;;;5.13;;
66256;SDS011;53049;43.446;3.698;2023-07-08T03:57:37;9.55;;;4.90;;
66256;SDS011;53049;43.446;3.698;2023-07-08T04:00:03;12.63;;;5.68;;
66256;SDS011;53049;43.446;3.698;2023-07-08T04:02:29;10.95;;;4.85;;
66256;SDS011;53049;43.446;3.698;2023-07-08T04:04:55;12.38;;;5.20;;
66256;SDS011;53049;43.446;3.698;2023-07-08T04:07:20;9.02;;;5.18;;
66256;SDS011;53049;43.446;3.698;2023-07-08T04:09:46;12.43;;;4.65;;
66256;SDS011;53049;43.446;3.698;2023-07-08T04:12:15;11.23;;;5.47;;
66256;SDS011;53049;43.446;3.698;2023-07-08T04:14:41;10.80;;;5.88;;
66256;SDS011;53049;43.446;3.698;2023-07-08T04:17:07;10.30;;;4.93;;
66256;SDS011;53049;43.446;3.698;2023-07-08T04:19:34;9.15;;;5.30;;
66256;SDS011;53049;43.446;3.698;2023-07-08T04:22:01;11.90;;;5.07;;
66256;SDS011;53049;43.446;3.698;2023-07-08T04:24:27;12.10;;;5.18;;
66256;SDS011;53049;43.446;3.698;2023-07-08T04:26:53;11.43;;;4.63;;
66256;SDS011;53049;43.446;3.698;2023-07-08T04:29:20;11.38;;;5.47;;
66256;SDS011;53049;43.446;3.698;2023-07-08T04:31:47;10.18;;;5.07;;
66256;SDS011;53049;43.446;3.698;2023-07-08T04:34:12;9.00;;;5.03;;
66256;SDS011;53049;43.446;3.698;2023-07-08T04:36:39;9.88;;;5.13;;
66256;SDS011;53049;43.446;3.698;2023-07-08T04:39:05;11.02;;;5.35;;
66256;SDS011;53049;43.446;3.698;2023-07-08T04:41:32;10.55;;;4.75;;
66256;SDS011;53049;43.446;3.698;2023-07-08T04:43:58;10.95;;;5.38;;
66256;SDS011;53049;43.446;3.698;2023-07-08T04:46:30;9.35;;;5.35;;
66256;SDS011;53049;43.446;3.698;2023-07-08T04:49:04;9.43;;;4.85;;
66256;SDS011;53049;43.446;3.698;2023-07-08T04:51:31;10.30;;;5.13;;
66256;SDS011;53049;43.446;3.698;2023-07-08T04:53:57;13.00;;;5.68;;
66256;SDS011;53049;43.446;3.698;2023-07-08T04:56:24;8.07;;;4.72;;
66256;SDS011;53049;43.446;3.698;2023-07-08T04:58:59;10.02;;;4.75;;
66256;SDS011;53049;43.446;3.698;2023-07-08T05:01:26;8.98;;;5.20;;
66256;SDS011;53049;43.446;3.698;2023-07-08T05:03:52;11.23;;;5.57;;
66256;SDS011;53049;43.446;3.698;2023-07-08T05:06:18;13.27;;;5.35;;
66256;SDS011;53049;43.446;3.698;2023-07-08T05:08:43;10.68;;;4.90;;
66256;SDS011;53049;43.446;3.698;2023-07-08T05:11:09;11.82;;;5.13;;
66256;SDS011;53049;43.446;3.698;2023-07-08T05:13:35;12.80;;;5.15;;
66256;SDS011;53049;43.446;3.698;2023-07-08T05:16:00;12.95;;;5.40;;
66256;SDS011;53049;43.446;3.698;2023-07-08T05:18:26;11.65;;;4.97;;
66256;SDS011;53049;43.446;3.698;2023-07-08T05:20:52;10.68;;;4.93;;
66256;SDS011;53049;43.446;3.698;2023-07-08T05:23:19;8.35;;;4.78;;
66256;SDS011;53049;43.446;3.698;2023-07-08T05:25:45;8.60;;;5.07;;
66256;SDS011;53049;43.446;3.698;2023-07-08T05:28:11;12.50;;;5.20;;
66256;SDS011;53049;43.446;3.698;2023-07-08T05:30:39;10.10;;;4.93;;
66256;SDS011;53049;43.446;3.698;2023-07-08T05:33:05;8.80;;;4.93;;
66256;SDS011;53049;43.446;3.698;2023-07-08T05:35:31;11.23;;;4.55;;
66256;SDS011;53049;43.446;3.698;2023-07-08T05:37:57;13.23;;;4.95;;
66256;SDS011;53049;43.446;3.698;2023-07-08T05:40:23;11.15;;;5.30;;
66256;SDS011;53049;43.446;3.698;2023-07-08T05:42:48;9.48;;;5.10;;
66256;SDS011;53049;43.446;3.698;2023-07-08T05:45:14;10.35;;;4.85;;
66256;SDS011;53049;43.446;3.698;2023-07-08T05:47:40;9.00;;;4.68;;
66256;SDS011;53049;43.446;3.698;2023-07-08T05:50:05;12.02;;;5.70;;
66256;SDS011;53049;43.446;3.698;2023-07-08T05:52:32;9.25;;;4.65;;
66256;SDS011;53049;43.446;3.698;2023-07-08T05:54:57;11.15;;;5.43;;
66256;SDS011;53049;43.446;3.698;2023-07-08T05:57:23;10.57;;;5.28;;
66256;SDS011;53049;43.446;3.698;2023-07-08T05:59:49;11.05;;;5.10;;
66256;SDS011;53049;43.446;3.698;2023-07-08T06:02:16;12.60;;;5.35;;
66256;SDS011;53049;43.446;3.698;2023-07-08T06:04:42;10.82;;;4.60;;
66256;SDS011;53049;43.446;3.698;2023-07-08T06:07:08;8.55;;;4.70;;
66256;SDS011;53049;43.446;3.698;2023-07-08T06:09:33;9.35;;;4.57;;
66256;SDS011;53049;43.446;3.698;2023-07-08T06:11:59;13.05;;;5.30;;
66256;SDS011;53049;43.446;3.698;2023-07-08T06:14:26;13.13;;;4.68;;
66256;SDS011;53049;43.446;3.698;2023-07-08T06:16:52;10.75;;;4.82;;
66256;SDS011;53049;43.446;3.698;2023-07-08T06:19:19;12.35;;;5.15;;
66256;SDS011;53049;43.446;3.698;2023-07-08T06:21:45;11.68;;;5.07;;
66256;SDS011;53049;43.446;3.698;2023-07-08T06:24:11;10.73;;;4.93;;
66256;SDS011;53049;43.446;3.698;2023-07-08T06:26:37;11.20;;;5.18;;
66256;SDS011;53049;43.446;3.698;2023-07-08T06:29:03;8.60;;;4.80;;
66256;SDS011;53049;43.446;3.698;2023-07-08T06:31:29;10.38;;;4.90;;
66256;SDS011;53049;43.446;3.698;2023-07-08T06:33:55;9.27;;;4.88;;
66256;SDS011;53049;43.446;3.698;2023-07-08T06:36:20;17.70;;;5.55;;
66256;SDS011;53049;43.446;3.698;2023-07-08T06:38:47;10.70;;;4.95;;
66256;SDS011;53049;43.446;3.698;2023-07-08T06:41:12;9.07;;;4.63;;
66256;SDS011;53049;43.446;3.698;2023-07-08T06:43:38;10.70;;;4.80;;
66256;SDS011;53049;43.446;3.698;2023-07-08T06:46:04;9.40;;;4.68;;
66256;SDS011;53049;43.446;3.698;2023-07-08T06:48:31;8.32;;;4.78;;
66256;SDS011;53049;43.446;3.698;2023-07-08T06:50:57;14.02;;;5.03;;
66256;SDS011;53049;43.446;3.698;2023-07-08T06:53:23;9.55;;;4.65;;
66256;SDS011;53049;43.446;3.698;2023-07-08T06:55:49;9.05;;;4.32;;
66256;SDS011;53049;43.446;3.698;2023-07-08T06:58:15;10.75;;;4.82;;
66256;SDS011;53049;43.446;3.698;2023-07-08T07:00:42;10.40;;;5.07;;
66256;SDS011;53049;43.446;3.698;2023-07-08T07:03:09;9.98;;;4.57;;
66256;SDS011;53049;43.446;3.698;2023-07-08T07:05:34;14.60;;;4.88;;
66256;SDS011;53049;43.446;3.698;2023-07-08T07:08:01;10.45;;;4.55;;
66256;SDS011;53049;43.446;3.698;2023-07-08T07:10:27;14.10;;;5.55;;
66256;SDS011;53049;43.446;3.698;2023-07-08T07:12:53;10.93;;;5.20;;
66256;SDS011;53049;43.446;3.698;2023-07-08T07:15:18;11.73;;;5.68;;
66256;SDS011;53049;43.446;3.698;2023-07-08T07:17:44;10.48;;;5.00;;
66256;SDS011;53049;43.446;3.698;2023-07-08T07:20:10;12.82;;;5.55;;
66256;SDS011;53049;43.446;3.698;2023-07-08T07:22:36;9.40;;;4.75;;
66256;SDS011;53049;43.446;3.698;2023-07-08T07:25:01;13.18;;;4.80;;
66256;SDS011;53049;43.446;3.698;2023-07-08T07:27:28;15.55;;;5.65;;
66256;SDS011;53049;43.446;3.698;2023-07-08T07:29:53;11.45;;;5.25;;
66256;SDS011;53049;43.446;3.698;2023-07-08T07:32:22;9.82;;;5.50;;
66256;SDS011;53049;43.446;3.698;2023-07-08T07:34:48;12.00;;;5.90;;
66256;SDS011;53049;43.446;3.698;2023-07-08T07:37:15;12.55;;;5.35;;
66256;SDS011;53049;43.446;3.698;2023-07-08T07:39:42;9.48;;;5.13;;
66256;SDS011;53049;43.446;3.698;2023-07-08T07:42:08;10.07;;;5.13;;
66256;SDS011;53049;43.446;3.698;2023-07-08T07:44:35;9.75;;;4.90;;
66256;SDS011;53049;43.446;3.698;2023-07-08T07:47:01;11.68;;;4.95;;
66256;SDS011;53049;43.446;3.698;2023-07-08T07:49:28;12.07;;;5.05;;
66256;SDS011;53049;43.446;3.698;2023-07-08T07:51:53;9.63;;;4.75;;
66256;SDS011;53049;43.446;3.698;2023-07-08T07:54:19;10.20;;;4.65;;
66256;SDS011;53049;43.446;3.698;2023-07-08T07:56:45;10.13;;;4.97;;
66256;SDS011;53049;43.446;3.698;2023-07-08T07:59:10;8.50;;;4.38;;
66256;SDS011;53049;43.446;3.698;2023-07-08T08:01:36;9.50;;;5.22;;
66256;SDS011;53049;43.446;3.698;2023-07-08T08:04:02;8.73;;;5.00;;
66256;SDS011;53049;43.446;3.698;2023-07-08T08:06:28;15.20;;;4.50;;
66256;SDS011;53049;43.446;3.698;2023-07-08T08:08:54;7.68;;;4.40;;
66256;SDS011;53049;43.446;3.698;2023-07-08T08:11:21;10.98;;;4.75;;
66256;SDS011;53049;43.446;3.698;2023-07-08T08:13:47;8.68;;;4.53;;
66256;SDS011;53049;43.446;3.698;2023-07-08T08:16:13;7.55;;;4.55;;
66256;SDS011;53049;43.446;3.698;2023-07-08T08:18:38;7.90;;;4.60;;
66256;SDS011;53049;43.446;3.698;2023-07-08T08:21:04;10.75;;;4.60;;
66256;SDS011;53049;43.446;3.698;2023-07-08T08:23:29;9.82;;;4.20;;
66256;SDS011;53049;43.446;3.698;2023-07-08T08:25:55;9.05;;;4.20;;
66256;SDS011;53049;43.446;3.698;2023-07-08T08:28:21;10.73;;;4.50;;
66256;SDS011;53049;43.446;3.698;2023-07-08T08:30:47;8.60;;;4.22;;
66256;SDS011;53049;43.446;3.698;2023-07-08T08:33:15;6.97;;;3.95;;
66256;SDS011;53049;43.446;3.698;2023-07-08T08:35:42;8.75;;;4.55;;
66256;SDS011;53049;43.446;3.698;2023-07-08T08:38:08;11.05;;;4.30;;
66256;SDS011;53049;43.446;3.698;2023-07-08T08:40:34;11.93;;;5.53;;
66256;SDS011;53049;43.446;3.698;2023-07-08T08:43:04;9.52;;;4.43;;
66256;SDS011;53049;43.446;3.698;2023-07-08T08:48:18;9.23;;;4.47;;
66256;SDS011;53049;43.446;3.698;2023-07-08T08:51:03;9.95;;;4.22;;
66256;SDS011;53049;43.446;3.698;2023-07-08T08:53:33;8.15;;;4.38;;
66256;SDS011;53049;43.446;3.698;2023-07-08T08:56:18;11.00;;;4.38;;
66256;SDS011;53049;43.446;3.698;2023-07-08T09:02:00;8.55;;;4.22;;
66256;SDS011;53049;43.446;3.698;2023-07-08T09:04:34;7.32;;;4.18;;
66256;SDS011;53049;43.446;3.698;2023-07-08T09:07:18;8.00;;;4.45;;
66256;SDS011;53049;43.446;3.698;2023-07-08T09:09:59;6.32;;;3.95;;
66256;SDS011;53049;43.446;3.698;2023-07-08T09:12:29;9.13;;;3.97;;
66256;SDS011;53049;43.446;3.698;2023-07-08T09:14:57;9.13;;;3.97;;
66256;SDS011;53049;43.446;3.698;2023-07-08T09:17:26;7.68;;;4.32;;
66256;SDS011;53049;43.446;3.698;2023-07-08T09:27:54;9.38;;;4.45;;
66256;SDS011;53049;43.446;3.698;2023-07-08T09:30:21;10.90;;;4.47;;
66256;SDS011;53049;43.446;3.698;2023-07-08T09:32:48;9.90;;;5.03;;
66256;SDS011;53049;43.446;3.698;2023-07-08T09:35:59;8.00;;;4.13;;
66256;SDS011;53049;43.446;3.698;2023-07-08T09:38:09;9.88;;;4.22;;
66256;SDS011;53049;43.446;3.698;2023-07-08T09:40:39;8.83;;;3.90;;
66256;SDS011;53049;43.446;3.698;2023-07-08T09:45:44;9.93;;;4.28;;
66256;SDS011;53049;43.446;3.698;2023-07-08T09:48:15;9.57;;;4.53;;
66256;SDS011;53049;43.446;3.698;2023-07-08T09:50:51;9.18;;;4.57;;
66256;SDS011;53049;43.446;3.698;2023-07-08T09:53:18;7.70;;;3.90;;
66256;SDS011;53049;43.446;3.698;2023-07-08T09:55:45;7.50;;;4.00;;
66256;SDS011;53049;43.446;3.698;2023-07-08T09:58:11;8.25;;;4.57;;
66256;SDS011;53049;43.446;3.698;2023-07-08T10:00:43;9.25;;;4.20;;
66256;SDS011;53049;43.446;3.698;2023-07-08T10:03:22;8.98;;;4.07;;
66256;SDS011;53049;43.446;3.698;2023-07-08T10:05:57;8.45;;;4.05;;
66256;SDS011;53049;43.446;3.698;2023-07-08T10:08:29;8.05;;;4.22;;
66256;SDS011;53049;43.446;3.698;2023-07-08T10:11:26;8.45;;;4.47;;
66256;SDS011;53049;43.446;3.698;2023-07-08T10:13:54;10.27;;;4.25;;
66256;SDS011;53049;43.446;3.698;2023-07-08T10:16:26;7.78;;;4.55;;
66256;SDS011;53049;43.446;3.698;2023-07-08T10:18:56;9.23;;;4.30;;
66256;SDS011;53049;43.446;3.698;2023-07-08T10:22:08;8.93;;;4.50;;
66256;SDS011;53049;43.446;3.698;2023-07-08T10:27:22;8.50;;;4.18;;
66256;SDS011;53049;43.446;3.698;2023-07-08T10:30:00;7.15;;;4.03;;
66256;SDS011;53049;43.446;3.698;2023-07-08T10:57:12;10.57;;;4.47;;
66256;SDS011;53049;43.446;3.698;2023-07-08T11:00:24;7.88;;;4.25;;
66256;SDS011;53049;43.446;3.698;2023-07-08T11:06:07;8.45;;;4.35;;
66256;SDS011;53049;43.446;3.698;2023-07-08T11:14:44;10.80;;;4.85;;
66256;SDS011;53049;43.446;3.698;2023-07-08T11:19:48;7.53;;;4.63;;
66256;SDS011;53049;43.446;3.698;2023-07-08T11:22:50;8.13;;;4.13;;
66256;SDS011;53049;43.446;3.698;2023-07-08T11:25:20;7.82;;;4.45;;
66256;SDS011;53049;43.446;3.698;2023-07-08T11:27:49;7.15;;;4.45;;
66256;SDS011;53049;43.446;3.698;2023-07-08T11:30:23;8.63;;;4.38;;
66256;SDS011;53049;43.446;3.698;2023-07-08T11:33:24;8.00;;;4.75;;
66256;SDS011;53049;43.446;3.698;2023-07-08T11:35:48;8.73;;;4.75;;
66256;SDS011;53049;43.446;3.698;2023-07-08T11:38:18;8.05;;;5.10;;
66256;SDS011;53049;43.446;3.698;2023-07-08T11:41:04;10.45;;;5.00;;
66256;SDS011;53049;43.446;3.698;2023-07-08T11:43:42;8.63;;;5.10;;
66256;SDS011;53049;43.446;3.698;2023-07-08T11:46:11;7.80;;;4.45;;
66256;SDS011;53049;43.446;3.698;2023-07-08T11:48:46;10.55;;;5.28;;
66256;SDS011;53049;43.446;3.698;2023-07-08T11:51:16;8.60;;;4.55;;
66256;SDS011;53049;43.446;3.698;2023-07-08T11:53:49;9.30;;;4.55;;
66256;SDS011;53049;43.446;3.698;2023-07-08T11:56:22;12.07;;;5.53;;
66256;SDS011;53049;43.446;3.698;2023-07-08T11:58:50;9.68;;;4.45;;
66256;SDS011;53049;43.446;3.698;2023-07-08T12:01:28;8.23;;;4.50;;
66256;SDS011;53049;43.446;3.698;2023-07-08T12:09:00;8.13;;;4.68;;
66256;SDS011;53049;43.446;3.698;2023-07-08T12:11:52;7.43;;;4.25;;
66256;SDS011;53049;43.446;3.698;2023-07-08T12:14:24;12.53;;;5.33;;
66256;SDS011;53049;43.446;3.698;2023-07-08T12:16:52;10.30;;;5.03;;
66256;SDS011;53049;43.446;3.698;2023-07-08T12:19:18;9.68;;;4.80;;
66256;SDS011;53049;43.446;3.698;2023-07-08T12:21:46;12.45;;;5.43;;
66256;SDS011;53049;43.446;3.698;2023-07-08T12:24:13;12.63;;;4.63;;
66256;SDS011;53049;43.446;3.698;2023-07-08T12:26:40;10.98;;;4.97;;
66256;SDS011;53049;43.446;3.698;2023-07-08T12:29:07;10.45;;;4.72;;
66256;SDS011;53049;43.446;3.698;2023-07-08T12:31:38;9.50;;;4.60;;
66256;SDS011;53049;43.446;3.698;2023-07-08T12:34:07;9.88;;;4.90;;
66256;SDS011;53049;43.446;3.698;2023-07-08T12:36:38;9.57;;;4.85;;
66256;SDS011;53049;43.446;3.698;2023-07-08T12:39:04;8.75;;;4.60;;
66256;SDS011;53049;43.446;3.698;2023-07-08T12:41:32;8.85;;;5.45;;
66256;SDS011;53049;43.446;3.698;2023-07-08T12:43:59;10.85;;;5.07;;
66256;SDS011;53049;43.446;3.698;2023-07-08T12:46:26;8.85;;;5.00;;
66256;SDS011;53049;43.446;3.698;2023-07-08T12:48:53;9.27;;;4.50;;
66256;SDS011;53049;43.446;3.698;2023-07-08T12:51:20;11.73;;;5.10;;
66256;SDS011;53049;43.446;3.698;2023-07-08T12:53:49;11.23;;;5.53;;
66256;SDS011;53049;43.446;3.698;2023-07-08T12:56:16;7.90;;;5.10;;
66256;SDS011;53049;43.446;3.698;2023-07-08T12:58:49;10.25;;;5.20;;
66256;SDS011;53049;43.446;3.698;2023-07-08T13:01:17;10.82;;;4.97;;
66256;SDS011;53049;43.446;3.698;2023-07-08T13:04:27;13.95;;;5.78;;
66256;SDS011;53049;43.446;3.698;2023-07-08T13:06:47;7.07;;;4.65;;
66256;SDS011;53049;43.446;3.698;2023-07-08T13:11:55;8.98;;;4.97;;
66256;SDS011;53049;43.446;3.698;2023-07-08T13:14:23;11.57;;;4.95;;
66256;SDS011;53049;43.446;3.698;2023-07-08T13:16:50;11.32;;;5.93;;
66256;SDS011;53049;43.446;3.698;2023-07-08T13:19:16;8.30;;;4.90;;
66256;SDS011;53049;43.446;3.698;2023-07-08T13:21:43;10.15;;;5.13;;
66256;SDS011;53049;43.446;3.698;2023-07-08T13:24:10;13.85;;;5.28;;
66256;SDS011;53049;43.446;3.698;2023-07-08T13:26:36;11.98;;;4.80;;
66256;SDS011;53049;43.446;3.698;2023-07-08T13:29:13;10.25;;;4.97;;
66256;SDS011;53049;43.446;3.698;2023-07-08T13:31:52;11.07;;;4.75;;
66256;SDS011;53049;43.446;3.698;2023-07-08T13:34:23;8.60;;;4.50;;
66256;SDS011;53049;43.446;3.698;2023-07-08T13:36:51;7.55;;;4.20;;
66256;SDS011;53049;43.446;3.698;2023-07-08T13:39:35;7.55;;;4.28;;
66256;SDS011;53049;43.446;3.698;2023-07-08T13:42:02;8.48;;;4.00;;
66256;SDS011;53049;43.446;3.698;2023-07-08T13:44:28;10.75;;;4.63;;
66256;SDS011;53049;43.446;3.698;2023-07-08T13:46:56;9.25;;;4.32;;
66256;SDS011;53049;43.446;3.698;2023-07-08T13:49:28;7.07;;;4.03;;
66256;SDS011;53049;43.446;3.698;2023-07-08T13:52:22;7.80;;;4.82;;
66256;SDS011;53049;43.446;3.698;2023-07-08T13:54:52;7.18;;;4.30;;
66256;SDS011;53049;43.446;3.698;2023-07-08T13:57:23;9.27;;;4.47;;
66256;SDS011;53049;43.446;3.698;2023-07-08T14:00:04;9.73;;;4.53;;
66256;SDS011;53049;43.446;3.698;2023-07-08T14:02:32;10.13;;;4.80;;
66256;SDS011;53049;43.446;3.698;2023-07-08T14:05:00;10.93;;;4.13;;
66256;SDS011;53049;43.446;3.698;2023-07-08T14:07:29;9.82;;;4.90;;
66256;SDS011;53049;43.446;3.698;2023-07-08T14:09:57;10.70;;;5.32;;
66256;SDS011;53049;43.446;3.698;2023-07-08T14:12:23;8.45;;;4.50;;
66256;SDS011;53049;43.446;3.698;2023-07-08T14:14:49;8.88;;;4.65;;
66256;SDS011;53049;43.446;3.698;2023-07-08T14:17:18;7.00;;;4.20;;
66256;SDS011;53049;43.446;3.698;2023-07-08T14:19:47;6.20;;;4.03;;
66256;SDS011;53049;43.446;3.698;2023-07-08T14:24:42;7.20;;;3.97;;
66256;SDS011;53049;43.446;3.698;2023-07-08T14:27:09;7.18;;;4.70;;
66256;SDS011;53049;43.446;3.698;2023-07-08T14:29:37;7.72;;;4.40;;
66256;SDS011;53049;43.446;3.698;2023-07-08T14:32:03;9.50;;;4.43;;
66256;SDS011;53049;43.446;3.698;2023-07-08T14:34:30;5.85;;;3.97;;
66256;SDS011;53049;43.446;3.698;2023-07-08T14:36:59;7.93;;;4.20;;
66256;SDS011;53049;43.446;3.698;2023-07-08T14:39:24;6.75;;;4.22;;
66256;SDS011;53049;43.446;3.698;2023-07-08T14:41:50;7.10;;;4.00;;
66256;SDS011;53049;43.446;3.698;2023-07-08T14:44:20;9.63;;;4.28;;
66256;SDS011;53049;43.446;3.698;2023-07-08T14:46:51;8.02;;;4.35;;
66256;SDS011;53049;43.446;3.698;2023-07-08T14:49:19;10.27;;;4.40;;
66256;SDS011;53049;43.446;3.698;2023-07-08T14:51:45;10.02;;;4.50;;
66256;SDS011;53049;43.446;3.698;2023-07-08T14:54:11;8.23;;;4.80;;
66256;SDS011;53049;43.446;3.698;2023-07-08T14:56:37;9.35;;;4.40;;
66256;SDS011;53049;43.446;3.698;2023-07-08T14:59:04;9.48;;;5.00;;
66256;SDS011;53049;43.446;3.698;2023-07-08T15:01:30;10.30;;;4.32;;
66256;SDS011;53049;43.446;3.698;2023-07-08T15:03:56;7.43;;;4.15;;
66256;SDS011;53049;43.446;3.698;2023-07-08T15:06:22;11.20;;;5.03;;
66256;SDS011;53049;43.446;3.698;2023-07-08T15:08:49;8.57;;;4.65;;
66256;SDS011;53049;43.446;3.698;2023-07-08T15:11:14;9.63;;;4.72;;
66256;SDS011;53049;43.446;3.698;2023-07-08T15:13:41;8.55;;;5.07;;
66256;SDS011;53049;43.446;3.698;2023-07-08T15:16:12;9.35;;;4.35;;
66256;SDS011;53049;43.446;3.698;2023-07-08T15:18:40;8.38;;;4.30;;
66256;SDS011;53049;43.446;3.698;2023-07-08T15:21:09;6.82;;;4.03;;
66256;SDS011;53049;43.446;3.698;2023-07-08T15:23:39;7.93;;;4.22;;
66256;SDS011;53049;43.446;3.698;2023-07-08T15:26:05;8.07;;;3.92;;
66256;SDS011;53049;43.446;3.698;2023-07-08T15:28:37;7.70;;;4.68;;
66256;SDS011;53049;43.446;3.698;2023-07-08T15:31:08;7.43;;;3.65;;
66256;SDS011;53049;43.446;3.698;2023-07-08T15:33:36;7.20;;;4.72;;
66256;SDS011;53049;43.446;3.698;2023-07-08T15:36:02;9.63;;;4.00;;
66256;SDS011;53049;43.446;3.698;2023-07-08T15:38:33;6.93;;;3.88;;
66256;SDS011;53049;43.446;3.698;2023-07-08T15:40:59;9.70;;;4.05;;
66256;SDS011;53049;43.446;3.698;2023-07-08T15:43:24;7.63;;;4.40;;
66256;SDS011;53049;43.446;3.698;2023-07-08T15:45:50;8.98;;;4.22;;
66256;SDS011;53049;43.446;3.698;2023-07-08T15:48:17;8.95;;;4.88;;
66256;SDS011;53049;43.446;3.698;2023-07-08T15:50:43;8.77;;;4.05;;
66256;SDS011;53049;43.446;3.698;2023-07-08T15:53:09;7.13;;;4.20;;
66256;SDS011;53049;43.446;3.698;2023-07-08T15:55:39;9.80;;;4.30;;
66256;SDS011;53049;43.446;3.698;2023-07-08T15:58:12;8.32;;;4.55;;
66256;SDS011;53049;43.446;3.698;2023-07-08T16:00:49;7.32;;;3.97;;
66256;SDS011;53049;43.446;3.698;2023-07-08T16:03:21;11.68;;;4.90;;